Terminal Aerodrome Forecast
Issued by NWS Twin Cities, MN

Home | Current Version | Previous Version | Text Only | Print | Product List | Glossary On
Versions: 1 2 3 4 5 6 7 8 9 10 11 12 13
673
FTUS43 KMPX 251124
TAFEAU
TAF
KEAU 251124Z 2512/2612 31012G21KT P6SM SCT025
     FM252100 28010KT P6SM FEW025 BKN050
     FM260400 21006KT P6SM SCT025 BKN050=

USA.gov is the U.S. government's official web portal to all federal, state and local government web resources and services.